sensor_id;sensor_type;location;lat;lon;timestamp;pressure;altitude;pressure_sealevel;temperature;humidity
9672;BME280;4874;43.568;27.824;2022-09-09T00:02:27;99148.16;;;19.83;100.00
9672;BME280;4874;43.568;27.824;2022-09-09T00:05:00;99185.81;;;19.22;100.00
9672;BME280;4874;43.568;27.824;2022-09-09T00:07:48;99183.75;;;19.45;100.00
9672;BME280;4874;43.568;27.824;2022-09-09T00:12:59;99194.75;;;19.71;100.00
9672;BME280;4874;43.568;27.824;2022-09-09T00:18:32;99182.56;;;19.81;100.00
9672;BME280;4874;43.568;27.824;2022-09-09T00:21:06;99177.97;;;19.75;100.00
9672;BME280;4874;43.568;27.824;2022-09-09T00:23:38;99169.84;;;19.69;100.00
9672;BME280;4874;43.568;27.824;2022-09-09T00:29:10;99158.84;;;19.98;100.00
9672;BME280;4874;43.568;27.824;2022-09-09T00:31:32;99166.03;;;20.19;100.00
9672;BME280;4874;43.568;27.824;2022-09-09T00:36:36;99171.44;;;19.57;100.00
9672;BME280;4874;43.568;27.824;2022-09-09T00:39:05;99150.81;;;19.43;100.00
9672;BME280;4874;43.568;27.824;2022-09-09T00:41:57;99175.31;;;19.54;100.00
9672;BME280;4874;43.568;27.824;2022-09-09T00:44:34;99168.53;;;19.58;100.00
9672;BME280;4874;43.568;27.824;2022-09-09T00:57:41;99168.41;;;20.48;100.00
9672;BME280;4874;43.568;27.824;2022-09-09T01:00:44;99164.88;;;20.07;100.00
9672;BME280;4874;43.568;27.824;2022-09-09T01:05:59;99159.06;;;20.03;100.00
9672;BME280;4874;43.568;27.824;2022-09-09T01:08:41;99164.06;;;20.06;100.00
9672;BME280;4874;43.568;27.824;2022-09-09T01:11:26;99162.97;;;20.01;100.00
9672;BME280;4874;43.568;27.824;2022-09-09T01:14:01;99154.41;;;19.84;100.00
9672;BME280;4874;43.568;27.824;2022-09-09T01:16:31;99136.72;;;19.75;100.00
9672;BME280;4874;43.568;27.824;2022-09-09T01:18:59;99170.94;;;20.15;100.00
9672;BME280;4874;43.568;27.824;2022-09-09T01:21:32;99163.66;;;19.75;100.00
9672;BME280;4874;43.568;27.824;2022-09-09T01:26:36;99155.88;;;19.86;100.00
9672;BME280;4874;43.568;27.824;2022-09-09T01:29:08;99153.78;;;19.88;100.00
9672;BME280;4874;43.568;27.824;2022-09-09T01:31:41;99154.75;;;19.19;100.00
9672;BME280;4874;43.568;27.824;2022-09-09T01:34:12;99143.28;;;18.68;100.00
9672;BME280;4874;43.568;27.824;2022-09-09T01:39:16;99144.78;;;19.20;100.00
9672;BME280;4874;43.568;27.824;2022-09-09T01:41:43;99114.94;;;18.87;100.00
9672;BME280;4874;43.568;27.824;2022-09-09T01:44:11;99138.34;;;18.93;100.00
9672;BME280;4874;43.568;27.824;2022-09-09T01:46:38;99158.88;;;19.43;100.00
9672;BME280;4874;43.568;27.824;2022-09-09T01:49:06;99148.75;;;19.45;100.00
9672;BME280;4874;43.568;27.824;2022-09-09T01:51:35;99142.53;;;19.78;100.00
9672;BME280;4874;43.568;27.824;2022-09-09T01:54:03;99135.81;;;20.02;100.00
9672;BME280;4874;43.568;27.824;2022-09-09T02:04:45;99150.84;;;19.49;100.00
9672;BME280;4874;43.568;27.824;2022-09-09T02:13:07;99151.16;;;19.95;100.00
9672;BME280;4874;43.568;27.824;2022-09-09T02:15:44;99120.22;;;19.50;100.00
9672;BME280;4874;43.568;27.824;2022-09-09T02:18:15;99156.25;;;19.83;100.00
9672;BME280;4874;43.568;27.824;2022-09-09T02:20:45;99152.38;;;19.58;100.00
9672;BME280;4874;43.568;27.824;2022-09-09T02:23:14;99151.66;;;19.77;100.00
9672;BME280;4874;43.568;27.824;2022-09-09T02:25:41;99158.81;;;19.92;100.00
9672;BME280;4874;43.568;27.824;2022-09-09T02:28:11;99146.75;;;19.87;100.00
9672;BME280;4874;43.568;27.824;2022-09-09T02:30:40;99143.63;;;19.50;100.00
9672;BME280;4874;43.568;27.824;2022-09-09T02:33:10;99161.50;;;19.57;100.00
9672;BME280;4874;43.568;27.824;2022-09-09T02:35:40;99155.41;;;19.49;100.00
9672;BME280;4874;43.568;27.824;2022-09-09T02:38:10;99153.97;;;19.53;100.00
9672;BME280;4874;43.568;27.824;2022-09-09T02:40:39;99153.06;;;19.39;100.00
9672;BME280;4874;43.568;27.824;2022-09-09T02:43:05;99156.34;;;19.35;100.00
9672;BME280;4874;43.568;27.824;2022-09-09T02:45:47;99150.22;;;19.47;100.00
9672;BME280;4874;43.568;27.824;2022-09-09T02:48:45;99160.81;;;19.28;100.00
9672;BME280;4874;43.568;27.824;2022-09-09T02:51:26;99151.19;;;19.19;100.00
9672;BME280;4874;43.568;27.824;2022-09-09T02:54:09;99148.88;;;18.88;100.00
9672;BME280;4874;43.568;27.824;2022-09-09T02:56:41;99147.31;;;19.00;100.00
9672;BME280;4874;43.568;27.824;2022-09-09T02:59:08;99154.38;;;18.80;100.00
9672;BME280;4874;43.568;27.824;2022-09-09T03:01:35;99154.03;;;19.11;100.00
9672;BME280;4874;43.568;27.824;2022-09-09T03:04:03;99148.66;;;18.90;100.00
9672;BME280;4874;43.568;27.824;2022-09-09T03:06:31;99158.53;;;18.83;100.00
9672;BME280;4874;43.568;27.824;2022-09-09T03:08:58;99160.69;;;19.15;100.00
9672;BME280;4874;43.568;27.824;2022-09-09T03:11:27;99164.66;;;19.19;100.00
9672;BME280;4874;43.568;27.824;2022-09-09T03:13:54;99158.78;;;19.09;100.00
9672;BME280;4874;43.568;27.824;2022-09-09T03:16:23;99156.03;;;18.81;100.00
9672;BME280;4874;43.568;27.824;2022-09-09T03:18:50;99166.31;;;19.20;100.00
9672;BME280;4874;43.568;27.824;2022-09-09T03:21:16;99155.31;;;18.72;100.00
9672;BME280;4874;43.568;27.824;2022-09-09T03:23:44;99135.91;;;18.98;100.00
9672;BME280;4874;43.568;27.824;2022-09-09T03:26:11;99156.09;;;18.88;100.00
9672;BME280;4874;43.568;27.824;2022-09-09T03:28:38;99157.38;;;18.92;100.00
9672;BME280;4874;43.568;27.824;2022-09-09T03:31:05;99154.31;;;18.95;100.00
9672;BME280;4874;43.568;27.824;2022-09-09T03:33:32;99145.13;;;19.10;100.00
9672;BME280;4874;43.568;27.824;2022-09-09T03:36:00;99146.53;;;19.06;100.00
9672;BME280;4874;43.568;27.824;2022-09-09T03:38:27;99155.44;;;18.86;100.00
9672;BME280;4874;43.568;27.824;2022-09-09T03:40:56;99149.44;;;18.84;100.00
9672;BME280;4874;43.568;27.824;2022-09-09T03:43:25;99144.09;;;19.11;100.00
9672;BME280;4874;43.568;27.824;2022-09-09T03:45:52;99161.78;;;18.99;100.00
9672;BME280;4874;43.568;27.824;2022-09-09T03:48:19;99157.22;;;19.42;100.00
9672;BME280;4874;43.568;27.824;2022-09-09T03:50:46;99153.50;;;19.22;100.00
9672;BME280;4874;43.568;27.824;2022-09-09T03:53:14;99155.69;;;19.12;100.00
9672;BME280;4874;43.568;27.824;2022-09-09T03:55:45;99161.63;;;19.01;100.00
9672;BME280;4874;43.568;27.824;2022-09-09T03:58:16;99159.88;;;18.72;100.00
9672;BME280;4874;43.568;27.824;2022-09-09T04:01:10;99164.59;;;18.70;100.00
9672;BME280;4874;43.568;27.824;2022-09-09T04:03:40;99131.63;;;19.04;100.00
9672;BME280;4874;43.568;27.824;2022-09-09T04:06:09;99162.63;;;19.00;100.00
9672;BME280;4874;43.568;27.824;2022-09-09T04:08:37;99163.72;;;18.84;100.00
9672;BME280;4874;43.568;27.824;2022-09-09T04:11:05;99161.91;;;19.12;100.00
9672;BME280;4874;43.568;27.824;2022-09-09T04:13:34;99162.50;;;18.65;100.00
9672;BME280;4874;43.568;27.824;2022-09-09T04:16:02;99161.56;;;19.22;100.00
9672;BME280;4874;43.568;27.824;2022-09-09T04:18:30;99171.28;;;19.16;100.00
9672;BME280;4874;43.568;27.824;2022-09-09T04:20:57;99156.53;;;18.91;100.00
9672;BME280;4874;43.568;27.824;2022-09-09T04:23:26;99160.63;;;19.08;100.00
9672;BME280;4874;43.568;27.824;2022-09-09T04:25:56;99157.94;;;19.29;100.00
9672;BME280;4874;43.568;27.824;2022-09-09T04:28:25;99158.03;;;19.42;100.00
9672;BME280;4874;43.568;27.824;2022-09-09T04:30:52;99155.50;;;19.34;100.00
9672;BME280;4874;43.568;27.824;2022-09-09T04:33:19;99165.31;;;19.21;100.00
9672;BME280;4874;43.568;27.824;2022-09-09T04:35:47;99159.13;;;19.27;100.00
9672;BME280;4874;43.568;27.824;2022-09-09T04:38:16;99162.63;;;19.21;100.00
9672;BME280;4874;43.568;27.824;2022-09-09T04:40:46;99113.00;;;18.81;100.00
9672;BME280;4874;43.568;27.824;2022-09-09T04:43:14;99162.94;;;19.32;100.00
9672;BME280;4874;43.568;27.824;2022-09-09T04:45:41;99140.69;;;19.24;100.00
9672;BME280;4874;43.568;27.824;2022-09-09T04:48:08;99156.91;;;19.30;100.00
9672;BME280;4874;43.568;27.824;2022-09-09T04:50:38;99149.47;;;19.60;100.00
9672;BME280;4874;43.568;27.824;2022-09-09T04:53:05;99155.53;;;19.68;100.00
9672;BME280;4874;43.568;27.824;2022-09-09T04:55:32;99154.97;;;19.45;100.00
9672;BME280;4874;43.568;27.824;2022-09-09T04:58:07;99157.34;;;19.61;100.00
9672;BME280;4874;43.568;27.824;2022-09-09T05:00:35;99155.00;;;19.79;100.00
9672;BME280;4874;43.568;27.824;2022-09-09T05:03:05;99137.09;;;19.65;100.00
9672;BME280;4874;43.568;27.824;2022-09-09T05:05:33;99152.88;;;19.75;100.00
9672;BME280;4874;43.568;27.824;2022-09-09T05:08:02;99156.06;;;19.85;100.00
9672;BME280;4874;43.568;27.824;2022-09-09T05:10:29;99158.63;;;20.00;100.00
9672;BME280;4874;43.568;27.824;2022-09-09T05:12:56;99158.88;;;20.05;100.00
9672;BME280;4874;43.568;27.824;2022-09-09T05:15:23;99162.63;;;20.10;100.00
9672;BME280;4874;43.568;27.824;2022-09-09T05:17:49;99159.16;;;20.16;100.00
9672;BME280;4874;43.568;27.824;2022-09-09T05:20:19;99116.47;;;19.85;100.00
9672;BME280;4874;43.568;27.824;2022-09-09T05:22:45;99165.75;;;20.14;100.00
9672;BME280;4874;43.568;27.824;2022-09-09T05:25:12;99168.72;;;20.19;100.00
9672;BME280;4874;43.568;27.824;2022-09-09T05:27:39;99160.66;;;20.25;100.00
9672;BME280;4874;43.568;27.824;2022-09-09T05:30:06;99157.41;;;20.36;100.00
9672;BME280;4874;43.568;27.824;2022-09-09T05:32:32;99155.72;;;20.42;100.00
9672;BME280;4874;43.568;27.824;2022-09-09T05:35:00;99150.34;;;20.48;100.00
9672;BME280;4874;43.568;27.824;2022-09-09T05:37:28;99116.72;;;20.38;100.00
9672;BME280;4874;43.568;27.824;2022-09-09T05:39:56;99151.03;;;20.57;100.00
9672;BME280;4874;43.568;27.824;2022-09-09T05:42:24;99137.97;;;20.73;100.00
9672;BME280;4874;43.568;27.824;2022-09-09T05:44:51;99136.72;;;20.76;100.00
9672;BME280;4874;43.568;27.824;2022-09-09T05:47:20;99137.78;;;20.88;100.00
9672;BME280;4874;43.568;27.824;2022-09-09T05:49:47;99129.47;;;20.89;100.00
9672;BME280;4874;43.568;27.824;2022-09-09T05:52:16;99135.16;;;21.01;100.00
9672;BME280;4874;43.568;27.824;2022-09-09T05:54:46;99134.53;;;21.06;100.00
9672;BME280;4874;43.568;27.824;2022-09-09T05:57:13;99121.63;;;21.21;100.00
9672;BME280;4874;43.568;27.824;2022-09-09T05:59:40;99132.84;;;21.31;100.00
9672;BME280;4874;43.568;27.824;2022-09-09T06:02:08;99136.56;;;21.43;100.00
9672;BME280;4874;43.568;27.824;2022-09-09T06:04:35;99143.41;;;21.58;100.00
9672;BME280;4874;43.568;27.824;2022-09-09T06:07:02;99136.53;;;21.75;100.00
9672;BME280;4874;43.568;27.824;2022-09-09T06:09:29;99102.03;;;21.71;100.00
9672;BME280;4874;43.568;27.824;2022-09-09T06:11:56;99143.94;;;22.19;100.00
9672;BME280;4874;43.568;27.824;2022-09-09T06:14:24;99137.44;;;22.27;100.00
9672;BME280;4874;43.568;27.824;2022-09-09T06:16:51;99155.25;;;22.54;100.00
9672;BME280;4874;43.568;27.824;2022-09-09T06:19:18;99157.16;;;22.84;100.00
9672;BME280;4874;43.568;27.824;2022-09-09T06:21:46;99157.84;;;23.04;100.00
9672;BME280;4874;43.568;27.824;2022-09-09T06:24:14;99166.59;;;23.06;100.00
9672;BME280;4874;43.568;27.824;2022-09-09T06:26:43;99167.16;;;23.15;100.00
9672;BME280;4874;43.568;27.824;2022-09-09T06:29:10;99159.41;;;23.50;100.00
9672;BME280;4874;43.568;27.824;2022-09-09T06:31:37;99171.59;;;23.59;100.00
9672;BME280;4874;43.568;27.824;2022-09-09T06:34:06;99174.81;;;23.74;100.00
9672;BME280;4874;43.568;27.824;2022-09-09T06:36:36;99159.53;;;23.97;100.00
9672;BME280;4874;43.568;27.824;2022-09-09T06:39:04;99173.28;;;23.78;100.00
9672;BME280;4874;43.568;27.824;2022-09-09T06:41:32;99167.94;;;24.14;100.00
9672;BME280;4874;43.568;27.824;2022-09-09T06:43:59;99164.91;;;24.04;100.00
9672;BME280;4874;43.568;27.824;2022-09-09T06:46:29;99151.41;;;24.15;100.00
9672;BME280;4874;43.568;27.824;2022-09-09T06:48:57;99154.00;;;24.58;100.00
9672;BME280;4874;43.568;27.824;2022-09-09T06:51:28;99162.00;;;24.23;100.00
9672;BME280;4874;43.568;27.824;2022-09-09T06:53:58;99154.34;;;24.50;100.00
9672;BME280;4874;43.568;27.824;2022-09-09T06:56:30;99149.47;;;24.40;100.00
9672;BME280;4874;43.568;27.824;2022-09-09T06:59:01;99152.94;;;24.77;100.00
9672;BME280;4874;43.568;27.824;2022-09-09T07:01:34;99128.09;;;25.03;100.00
9672;BME280;4874;43.568;27.824;2022-09-09T07:04:02;99129.50;;;24.94;100.00
9672;BME280;4874;43.568;27.824;2022-09-09T07:06:36;99123.56;;;24.86;100.00
9672;BME280;4874;43.568;27.824;2022-09-09T07:09:05;99151.72;;;25.44;100.00
9672;BME280;4874;43.568;27.824;2022-09-09T07:11:36;99152.56;;;25.44;100.00
9672;BME280;4874;43.568;27.824;2022-09-09T07:14:04;99143.28;;;25.22;100.00
9672;BME280;4874;43.568;27.824;2022-09-09T07:16:30;99153.25;;;25.75;100.00
9672;BME280;4874;43.568;27.824;2022-09-09T07:19:03;99157.06;;;25.50;100.00
9672;BME280;4874;43.568;27.824;2022-09-09T07:21:31;99152.66;;;25.61;99.94
9672;BME280;4874;43.568;27.824;2022-09-09T07:23:59;99151.00;;;25.83;95.11
9672;BME280;4874;43.568;27.824;2022-09-09T07:26:28;99168.03;;;25.79;93.96
9672;BME280;4874;43.568;27.824;2022-09-09T07:28:55;99160.59;;;25.51;98.38
9672;BME280;4874;43.568;27.824;2022-09-09T07:31:30;99164.50;;;25.78;92.06
9672;BME280;4874;43.568;27.824;2022-09-09T07:33:58;99159.38;;;26.28;86.24
9672;BME280;4874;43.568;27.824;2022-09-09T07:36:31;99153.59;;;26.13;91.57
9672;BME280;4874;43.568;27.824;2022-09-09T07:39:03;99165.31;;;26.25;81.20
9672;BME280;4874;43.568;27.824;2022-09-09T07:41:35;99168.28;;;25.89;86.34
9672;BME280;4874;43.568;27.824;2022-09-09T07:44:12;99172.06;;;26.22;76.56
9672;BME280;4874;43.568;27.824;2022-09-09T07:46:39;99166.28;;;26.19;77.46
9672;BME280;4874;43.568;27.824;2022-09-09T07:49:06;99161.56;;;26.03;80.63
9672;BME280;4874;43.568;27.824;2022-09-09T07:51:38;99156.94;;;26.15;79.18
9672;BME280;4874;43.568;27.824;2022-09-09T07:54:09;99142.63;;;25.96;73.66
9672;BME280;4874;43.568;27.824;2022-09-09T07:56:36;99145.66;;;26.23;73.66
9672;BME280;4874;43.568;27.824;2022-09-09T07:59:05;99158.44;;;26.74;74.49
9672;BME280;4874;43.568;27.824;2022-09-09T08:01:35;99169.09;;;26.24;75.58
9672;BME280;4874;43.568;27.824;2022-09-09T08:04:24;99130.41;;;25.99;76.05
9672;BME280;4874;43.568;27.824;2022-09-09T08:06:59;99158.47;;;26.22;73.91
9672;BME280;4874;43.568;27.824;2022-09-09T08:09:28;99160.56;;;26.32;73.80
9672;BME280;4874;43.568;27.824;2022-09-09T08:11:56;99154.56;;;26.58;73.66
9672;BME280;4874;43.568;27.824;2022-09-09T08:14:23;99145.31;;;26.59;75.76
9672;BME280;4874;43.568;27.824;2022-09-09T08:16:51;99120.81;;;26.19;78.86
9672;BME280;4874;43.568;27.824;2022-09-09T08:19:20;99143.34;;;26.83;76.37
9672;BME280;4874;43.568;27.824;2022-09-09T08:21:47;99095.50;;;26.47;76.42
9672;BME280;4874;43.568;27.824;2022-09-09T08:24:15;99155.84;;;27.12;74.87
9672;BME280;4874;43.568;27.824;2022-09-09T08:26:44;99144.16;;;26.83;79.91
9672;BME280;4874;43.568;27.824;2022-09-09T08:29:12;99128.63;;;26.67;80.36
9672;BME280;4874;43.568;27.824;2022-09-09T08:31:45;99129.41;;;26.79;74.26
9672;BME280;4874;43.568;27.824;2022-09-09T08:34:13;99092.50;;;26.88;69.62
9672;BME280;4874;43.568;27.824;2022-09-09T08:36:42;99132.34;;;26.78;74.47
9672;BME280;4874;43.568;27.824;2022-09-09T08:39:11;99119.19;;;27.19;73.05
9672;BME280;4874;43.568;27.824;2022-09-09T08:51:43;99108.53;;;27.01;85.45
9672;BME280;4874;43.568;27.824;2022-09-09T08:54:10;99113.44;;;27.32;86.22
9672;BME280;4874;43.568;27.824;2022-09-09T08:56:36;99106.22;;;27.26;79.91
9672;BME280;4874;43.568;27.824;2022-09-09T08:59:04;99105.22;;;27.16;81.59
9672;BME280;4874;43.568;27.824;2022-09-09T09:12:28;99106.56;;;27.13;80.16
9672;BME280;4874;43.568;27.824;2022-09-09T09:14:56;99102.09;;;27.07;82.47
9672;BME280;4874;43.568;27.824;2022-09-09T09:17:27;99122.50;;;27.21;78.75
9672;BME280;4874;43.568;27.824;2022-09-09T09:19:54;99110.16;;;27.30;75.71
9672;BME280;4874;43.568;27.824;2022-09-09T09:22:25;99114.09;;;27.06;76.02
9672;BME280;4874;43.568;27.824;2022-09-09T09:25:36;99120.72;;;26.82;63.35
9672;BME280;4874;43.568;27.824;2022-09-09T09:30:59;99143.47;;;27.21;59.23
9672;BME280;4874;43.568;27.824;2022-09-09T09:36:10;99139.91;;;27.32;57.63
9672;BME280;4874;43.568;27.824;2022-09-09T09:38:38;99130.63;;;27.49;56.63
9672;BME280;4874;43.568;27.824;2022-09-09T09:41:35;99125.34;;;27.43;51.57
9672;BME280;4874;43.568;27.824;2022-09-09T09:44:03;99123.94;;;27.40;52.74
9672;BME280;4874;43.568;27.824;2022-09-09T09:46:29;99103.66;;;27.03;54.99
9672;BME280;4874;43.568;27.824;2022-09-09T09:49:01;99104.59;;;27.25;54.95
9672;BME280;4874;43.568;27.824;2022-09-09T09:51:30;99104.72;;;27.19;52.14
9672;BME280;4874;43.568;27.824;2022-09-09T09:56:42;99071.47;;;27.17;52.51
9672;BME280;4874;43.568;27.824;2022-09-09T09:59:39;99096.50;;;27.47;51.38
9672;BME280;4874;43.568;27.824;2022-09-09T10:02:31;99086.34;;;27.42;51.79
9672;BME280;4874;43.568;27.824;2022-09-09T10:05:12;99085.09;;;27.17;51.98
9672;BME280;4874;43.568;27.824;2022-09-09T10:07:39;99092.09;;;27.13;50.16
9672;BME280;4874;43.568;27.824;2022-09-09T10:10:23;99093.91;;;27.24;53.78
9672;BME280;4874;43.568;27.824;2022-09-09T10:13:26;99102.50;;;27.65;55.79
9672;BME280;4874;43.568;27.824;2022-09-09T10:26:53;99098.84;;;27.76;55.11
9672;BME280;4874;43.568;27.824;2022-09-09T10:37:54;99088.81;;;27.82;48.32
9672;BME280;4874;43.568;27.824;2022-09-09T10:53:36;99072.63;;;27.04;45.98
9672;BME280;4874;43.568;27.824;2022-09-09T10:56:13;99066.56;;;27.02;46.11
9672;BME280;4874;43.568;27.824;2022-09-09T10:59:18;99093.03;;;27.35;49.20
9672;BME280;4874;43.568;27.824;2022-09-09T11:01:53;99082.50;;;26.94;48.95
9672;BME280;4874;43.568;27.824;2022-09-09T11:04:33;99093.59;;;27.53;51.17
9672;BME280;4874;43.568;27.824;2022-09-09T11:07:06;99082.06;;;27.30;45.96
9672;BME280;4874;43.568;27.824;2022-09-09T11:09:42;99056.25;;;26.88;46.87
9672;BME280;4874;43.568;27.824;2022-09-09T11:12:17;99077.16;;;26.99;45.83
9672;BME280;4874;43.568;27.824;2022-09-09T11:17:19;99083.84;;;27.24;46.34
9672;BME280;4874;43.568;27.824;2022-09-09T11:19:47;99098.22;;;27.20;47.37
9672;BME280;4874;43.568;27.824;2022-09-09T11:22:31;99091.28;;;27.12;46.22
9672;BME280;4874;43.568;27.824;2022-09-09T11:42:28;99076.06;;;26.83;54.76
9672;BME280;4874;43.568;27.824;2022-09-09T11:44:54;99054.84;;;26.57;51.70
9672;BME280;4874;43.568;27.824;2022-09-09T11:52:46;99053.88;;;27.08;54.41
9672;BME280;4874;43.568;27.824;2022-09-09T12:00:47;99059.16;;;27.31;54.42
9672;BME280;4874;43.568;27.824;2022-09-09T12:06:32;99045.84;;;26.85;58.03
9672;BME280;4874;43.568;27.824;2022-09-09T12:11:49;99042.50;;;26.66;60.50
9672;BME280;4874;43.568;27.824;2022-09-09T12:14:21;99021.19;;;26.63;61.57
9672;BME280;4874;43.568;27.824;2022-09-09T12:16:49;99009.53;;;26.51;63.37
9672;BME280;4874;43.568;27.824;2022-09-09T12:19:21;99042.22;;;26.96;65.58
9672;BME280;4874;43.568;27.824;2022-09-09T12:22:33;99038.31;;;27.25;62.71
9672;BME280;4874;43.568;27.824;2022-09-09T12:33:17;99038.16;;;26.53;68.00
9672;BME280;4874;43.568;27.824;2022-09-09T12:35:51;99024.53;;;26.98;67.80
9672;BME280;4874;43.568;27.824;2022-09-09T12:38:41;98990.47;;;26.34;70.62
9672;BME280;4874;43.568;27.824;2022-09-09T12:41:23;99017.97;;;26.66;70.58
9672;BME280;4874;43.568;27.824;2022-09-09T12:43:51;99018.06;;;26.54;63.12
9672;BME280;4874;43.568;27.824;2022-09-09T12:46:30;99022.00;;;26.47;64.34
9672;BME280;4874;43.568;27.824;2022-09-09T12:48:59;99022.16;;;26.85;66.95
9672;BME280;4874;43.568;27.824;2022-09-09T12:51:29;99021.66;;;26.43;72.02
9672;BME280;4874;43.568;27.824;2022-09-09T12:53:59;99022.06;;;26.52;72.90
9672;BME280;4874;43.568;27.824;2022-09-09T12:56:31;99020.06;;;26.31;71.00
9672;BME280;4874;43.568;27.824;2022-09-09T12:58:58;99011.59;;;26.60;71.62
9672;BME280;4874;43.568;27.824;2022-09-09T13:01:30;99019.59;;;26.79;69.62
9672;BME280;4874;43.568;27.824;2022-09-09T13:03:57;99008.53;;;26.69;67.02
9672;BME280;4874;43.568;27.824;2022-09-09T13:06:29;99002.75;;;26.37;70.87
9672;BME280;4874;43.568;27.824;2022-09-09T13:09:01;99003.22;;;26.17;66.94
9672;BME280;4874;43.568;27.824;2022-09-09T13:11:38;98992.00;;;26.02;70.00
9672;BME280;4874;43.568;27.824;2022-09-09T13:14:06;98974.75;;;25.97;71.38
9672;BME280;4874;43.568;27.824;2022-09-09T13:16:34;98983.50;;;26.10;79.03
9672;BME280;4874;43.568;27.824;2022-09-09T13:19:10;99004.66;;;26.08;82.06
9672;BME280;4874;43.568;27.824;2022-09-09T13:21:40;99009.88;;;26.10;79.05
9672;BME280;4874;43.568;27.824;2022-09-09T13:24:29;99000.53;;;26.06;74.93
9672;BME280;4874;43.568;27.824;2022-09-09T13:27:03;98976.53;;;26.03;78.00
9672;BME280;4874;43.568;27.824;2022-09-09T13:29:31;98999.34;;;26.30;77.85
9672;BME280;4874;43.568;27.824;2022-09-09T13:32:12;98996.63;;;26.30;76.38
9672;BME280;4874;43.568;27.824;2022-09-09T13:34:54;99003.19;;;26.45;83.94
9672;BME280;4874;43.568;27.824;2022-09-09T13:37:34;99005.28;;;26.27;86.33
9672;BME280;4874;43.568;27.824;2022-09-09T13:40:03;99001.63;;;26.66;85.76
9672;BME280;4874;43.568;27.824;2022-09-09T13:42:33;99002.34;;;26.45;86.67
9672;BME280;4874;43.568;27.824;2022-09-09T13:45:04;99000.25;;;26.63;82.35
9672;BME280;4874;43.568;27.824;2022-09-09T13:47:35;99002.59;;;26.43;89.78
9672;BME280;4874;43.568;27.824;2022-09-09T13:52:57;98984.47;;;26.21;93.64
9672;BME280;4874;43.568;27.824;2022-09-09T13:55:27;98998.75;;;26.28;97.40
9672;BME280;4874;43.568;27.824;2022-09-09T13:58:01;98992.72;;;25.98;94.74
9672;BME280;4874;43.568;27.824;2022-09-09T14:00:30;98997.75;;;25.78;97.41
9672;BME280;4874;43.568;27.824;2022-09-09T14:02:58;98987.47;;;25.68;100.00
9672;BME280;4874;43.568;27.824;2022-09-09T14:05:26;98993.00;;;25.85;100.00
9672;BME280;4874;43.568;27.824;2022-09-09T14:07:53;98988.81;;;25.94;99.45
9672;BME280;4874;43.568;27.824;2022-09-09T14:10:20;98982.31;;;26.06;95.54
9672;BME280;4874;43.568;27.824;2022-09-09T14:12:49;98994.81;;;25.79;98.27
9672;BME280;4874;43.568;27.824;2022-09-09T14:15:16;98984.00;;;25.33;100.00
9672;BME280;4874;43.568;27.824;2022-09-09T14:17:42;98988.50;;;25.16;100.00
9672;BME280;4874;43.568;27.824;2022-09-09T14:20:10;98979.41;;;25.10;100.00
9672;BME280;4874;43.568;27.824;2022-09-09T14:22:38;98986.22;;;25.13;100.00
9672;BME280;4874;43.568;27.824;2022-09-09T14:25:06;98980.00;;;25.12;100.00
9672;BME280;4874;43.568;27.824;2022-09-09T14:27:33;98985.06;;;25.43;100.00
9672;BME280;4874;43.568;27.824;2022-09-09T14:29:59;98983.66;;;25.41;100.00
9672;BME280;4874;43.568;27.824;2022-09-09T14:32:27;98974.53;;;25.59;100.00
9672;BME280;4874;43.568;27.824;2022-09-09T14:34:53;98979.25;;;25.51;100.00
9672;BME280;4874;43.568;27.824;2022-09-09T14:37:20;98978.75;;;25.66;100.00
9672;BME280;4874;43.568;27.824;2022-09-09T14:39:47;98975.56;;;25.58;100.00
9672;BME280;4874;43.568;27.824;2022-09-09T14:42:17;98980.19;;;25.34;100.00
9672;BME280;4874;43.568;27.824;2022-09-09T14:44:43;98964.13;;;25.32;100.00
9672;BME280;4874;43.568;27.824;2022-09-09T14:47:10;98968.41;;;24.82;100.00
9672;BME280;4874;43.568;27.824;2022-09-09T14:49:37;98985.63;;;25.34;100.00
9672;BME280;4874;43.568;27.824;2022-09-09T14:52:04;98979.97;;;25.24;100.00
9672;BME280;4874;43.568;27.824;2022-09-09T14:54:31;98966.16;;;24.91;100.00
9672;BME280;4874;43.568;27.824;2022-09-09T14:56:58;98970.19;;;24.88;100.00
9672;BME280;4874;43.568;27.824;2022-09-09T14:59:25;98969.59;;;24.33;100.00
9672;BME280;4874;43.568;27.824;2022-09-09T15:01:53;98965.81;;;24.34;100.00
9672;BME280;4874;43.568;27.824;2022-09-09T15:04:19;98962.81;;;24.13;100.00
9672;BME280;4874;43.568;27.824;2022-09-09T15:06:46;98960.88;;;24.31;100.00
9672;BME280;4874;43.568;27.824;2022-09-09T15:09:15;98957.00;;;24.39;100.00
9672;BME280;4874;43.568;27.824;2022-09-09T15:11:41;98966.56;;;24.53;100.00
9672;BME280;4874;43.568;27.824;2022-09-09T15:14:09;98963.00;;;24.41;100.00
9672;BME280;4874;43.568;27.824;2022-09-09T15:16:39;98963.91;;;24.23;100.00
9672;BME280;4874;43.568;27.824;2022-09-09T15:19:06;98942.91;;;23.71;100.00
9672;BME280;4874;43.568;27.824;2022-09-09T15:21:35;98967.06;;;23.91;100.00
9672;BME280;4874;43.568;27.824;2022-09-09T15:24:02;98941.56;;;23.80;100.00
9672;BME280;4874;43.568;27.824;2022-09-09T15:26:30;98959.38;;;23.88;100.00
9672;BME280;4874;43.568;27.824;2022-09-09T15:28:57;98955.84;;;23.87;100.00
9672;BME280;4874;43.568;27.824;2022-09-09T15:31:28;98954.75;;;23.59;100.00
9672;BME280;4874;43.568;27.824;2022-09-09T15:33:57;98930.72;;;23.80;100.00
9672;BME280;4874;43.568;27.824;2022-09-09T15:36:42;98961.66;;;23.73;100.00
9672;BME280;4874;43.568;27.824;2022-09-09T15:39:12;98962.75;;;23.54;100.00
9672;BME280;4874;43.568;27.824;2022-09-09T15:41:43;98953.69;;;23.23;100.00
9672;BME280;4874;43.568;27.824;2022-09-09T15:44:10;98952.44;;;23.44;100.00
9672;BME280;4874;43.568;27.824;2022-09-09T15:46:46;98949.41;;;23.52;100.00
9672;BME280;4874;43.568;27.824;2022-09-09T15:49:17;98955.38;;;23.43;100.00
9672;BME280;4874;43.568;27.824;2022-09-09T15:51:47;98951.81;;;23.24;100.00
9672;BME280;4874;43.568;27.824;2022-09-09T15:54:17;98949.22;;;22.93;100.00
9672;BME280;4874;43.568;27.824;2022-09-09T15:56:46;98950.00;;;23.18;100.00
9672;BME280;4874;43.568;27.824;2022-09-09T15:59:15;98892.19;;;22.45;100.00